createdAt,value
2023-04-15T00:00:56.000Z,174
2023-04-15T00:02:11.000Z,168
2023-04-15T00:03:27.000Z,168
2023-04-15T00:04:43.000Z,169
2023-04-15T00:06:00.000Z,169
2023-04-15T00:07:16.000Z,173
2023-04-15T00:08:32.000Z,172
2023-04-15T00:09:48.000Z,170
2023-04-15T00:11:04.000Z,173
2023-04-15T00:12:21.000Z,170
2023-04-15T00:13:37.000Z,169
2023-04-15T00:14:53.000Z,171
2023-04-15T00:16:09.000Z,171
2023-04-15T00:17:26.000Z,170
2023-04-15T00:18:41.000Z,172
2023-04-15T00:19:57.000Z,173
2023-04-15T00:21:13.000Z,174
2023-04-15T00:22:30.000Z,172
2023-04-15T00:23:46.000Z,171
2023-04-15T00:25:02.000Z,170
2023-04-15T00:26:18.000Z,171
2023-04-15T00:27:35.000Z,174
2023-04-15T00:28:51.000Z,172
2023-04-15T00:30:07.000Z,167
2023-04-15T00:31:23.000Z,168
2023-04-15T00:32:39.000Z,172
2023-04-15T00:33:56.000Z,172
2023-04-15T00:35:11.000Z,173
2023-04-15T00:36:27.000Z,173
2023-04-15T00:37:43.000Z,171
2023-04-15T00:39:00.000Z,167
2023-04-15T00:40:16.000Z,168
2023-04-15T00:41:32.000Z,171
2023-04-15T00:42:48.000Z,173
2023-04-15T00:44:05.000Z,168
2023-04-15T00:45:21.000Z,172
2023-04-15T00:46:37.000Z,171
2023-04-15T00:47:53.000Z,171
2023-04-15T00:49:10.000Z,173
2023-04-15T00:50:26.000Z,173
2023-04-15T00:51:41.000Z,174
2023-04-15T00:52:57.000Z,177
2023-04-15T00:54:13.000Z,176
2023-04-15T00:55:30.000Z,174
2023-04-15T00:56:46.000Z,178
2023-04-15T00:58:02.000Z,174
2023-04-15T00:59:18.000Z,172
2023-04-15T01:00:35.000Z,169
2023-04-15T01:01:51.000Z,167
2023-04-15T01:03:07.000Z,166
2023-04-15T01:04:23.000Z,167
2023-04-15T01:05:40.000Z,163
2023-04-15T01:06:56.000Z,161
2023-04-15T01:08:11.000Z,163
2023-04-15T01:09:27.000Z,161
2023-04-15T01:10:44.000Z,161
2023-04-15T01:12:00.000Z,161
2023-04-15T01:13:16.000Z,162
2023-04-15T01:14:32.000Z,164
2023-04-15T01:15:48.000Z,164
2023-04-15T01:17:05.000Z,169
2023-04-15T01:18:21.000Z,168
2023-04-15T01:19:37.000Z,167
2023-04-15T01:20:53.000Z,167
2023-04-15T01:22:10.000Z,166
2023-04-15T01:23:26.000Z,162
2023-04-15T01:24:41.000Z,160
2023-04-15T01:25:57.000Z,162
2023-04-15T01:27:14.000Z,163
2023-04-15T01:28:30.000Z,164
2023-04-15T01:29:46.000Z,165
2023-04-15T01:31:02.000Z,162
2023-04-15T01:32:19.000Z,161
2023-04-15T01:33:35.000Z,164
2023-04-15T01:34:51.000Z,161
2023-04-15T01:36:07.000Z,161
2023-04-15T01:37:23.000Z,163
2023-04-15T01:38:40.000Z,162
2023-04-15T01:39:56.000Z,163
2023-04-15T01:41:11.000Z,160
2023-04-15T01:42:27.000Z,158
2023-04-15T01:43:44.000Z,155
2023-04-15T01:45:00.000Z,156
2023-04-15T01:46:16.000Z,159
2023-04-15T01:47:32.000Z,156
2023-04-15T01:48:49.000Z,153
2023-04-15T01:50:05.000Z,152
2023-04-15T01:51:21.000Z,154
2023-04-15T01:52:37.000Z,151
2023-04-15T01:53:54.000Z,149
2023-04-15T01:55:10.000Z,149
2023-04-15T01:56:26.000Z,151
2023-04-15T01:57:41.000Z,150
2023-04-15T01:58:57.000Z,148
2023-04-15T02:00:14.000Z,150
2023-04-15T02:01:30.000Z,151
2023-04-15T02:02:46.000Z,152
2023-04-15T02:04:02.000Z,153
2023-04-15T02:05:19.000Z,151
2023-04-15T02:06:35.000Z,154
2023-04-15T02:07:51.000Z,154
2023-04-15T02:09:07.000Z,153
2023-04-15T02:10:24.000Z,153
2023-04-15T02:11:40.000Z,152
2023-04-15T02:12:56.000Z,151
2023-04-15T02:14:11.000Z,149
2023-04-15T02:15:28.000Z,151
2023-04-15T02:16:44.000Z,150
2023-04-15T02:18:00.000Z,148
2023-04-15T02:19:16.000Z,149
2023-04-15T02:20:32.000Z,153
2023-04-15T02:21:49.000Z,151
2023-04-15T02:23:05.000Z,153
2023-04-15T02:24:21.000Z,152
2023-04-15T02:25:37.000Z,150
2023-04-15T02:26:54.000Z,151
2023-04-15T02:28:10.000Z,153
2023-04-15T02:29:26.000Z,151
2023-04-15T02:30:41.000Z,152
2023-04-15T02:31:58.000Z,153
2023-04-15T02:33:14.000Z,153
2023-04-15T02:34:29.000Z,154
2023-04-15T02:35:45.000Z,151
2023-04-15T02:37:02.000Z,155
2023-04-15T02:38:18.000Z,153
2023-04-15T02:39:34.000Z,154
2023-04-15T02:40:50.000Z,156
2023-04-15T02:42:07.000Z,156
2023-04-15T02:43:23.000Z,155
2023-04-15T02:44:39.000Z,158
2023-04-15T02:45:55.000Z,156
2023-04-15T02:47:11.000Z,159
2023-04-15T02:48:28.000Z,159
2023-04-15T02:49:44.000Z,156
2023-04-15T02:50:59.000Z,155
2023-04-15T02:52:15.000Z,158
2023-04-15T02:53:32.000Z,155
2023-04-15T02:54:48.000Z,160
2023-04-15T02:56:04.000Z,160
2023-04-15T02:57:20.000Z,157
2023-04-15T02:58:37.000Z,161
2023-04-15T02:59:53.000Z,163
2023-04-15T03:01:09.000Z,159
2023-04-15T03:02:25.000Z,161
2023-04-15T03:03:42.000Z,161
2023-04-15T03:04:58.000Z,160
2023-04-15T03:06:14.000Z,159
2023-04-15T03:07:29.000Z,159
2023-04-15T03:08:45.000Z,159
2023-04-15T03:10:02.000Z,163
2023-04-15T03:11:18.000Z,165
2023-04-15T03:12:34.000Z,163
2023-04-15T03:13:50.000Z,163
2023-04-15T03:15:07.000Z,162
2023-04-15T03:16:23.000Z,161
2023-04-15T03:17:39.000Z,162
2023-04-15T03:18:55.000Z,165
2023-04-15T03:20:12.000Z,162
2023-04-15T03:21:28.000Z,164
2023-04-15T03:22:44.000Z,163
2023-04-15T03:23:59.000Z,164
2023-04-15T03:25:16.000Z,160
2023-04-15T03:26:32.000Z,163
2023-04-15T03:27:48.000Z,166
2023-04-15T03:29:04.000Z,164
2023-04-15T03:30:20.000Z,166
2023-04-15T03:31:37.000Z,163
2023-04-15T03:32:53.000Z,161
2023-04-15T03:34:09.000Z,164
2023-04-15T03:35:25.000Z,165
2023-04-15T03:36:42.000Z,164
2023-04-15T03:37:58.000Z,168
2023-04-15T03:39:14.000Z,168
2023-04-15T03:40:29.000Z,167
2023-04-15T03:41:46.000Z,165
2023-04-15T03:43:02.000Z,167
2023-04-15T03:44:18.000Z,165
2023-04-15T03:45:34.000Z,166
2023-04-15T03:46:51.000Z,168
2023-04-15T03:48:07.000Z,165
2023-04-15T03:49:23.000Z,167
2023-04-15T03:50:39.000Z,163
2023-04-15T03:51:55.000Z,165
2023-04-15T03:53:12.000Z,163
2023-04-15T03:54:28.000Z,167
2023-04-15T03:55:44.000Z,164
2023-04-15T03:56:59.000Z,164
2023-04-15T03:58:16.000Z,162
2023-04-15T03:59:32.000Z,163
2023-04-15T04:00:48.000Z,167
2023-04-15T04:02:04.000Z,166
2023-04-15T04:03:21.000Z,163
2023-04-15T04:04:37.000Z,167
2023-04-15T04:05:53.000Z,169
2023-04-15T04:07:09.000Z,165
2023-04-15T04:08:26.000Z,166
2023-04-15T04:09:42.000Z,165
2023-04-15T04:10:58.000Z,166
2023-04-15T04:12:14.000Z,170
2023-04-15T04:13:29.000Z,178
2023-04-15T04:14:46.000Z,179
2023-04-15T04:16:02.000Z,180
2023-04-15T04:17:18.000Z,185
2023-04-15T04:18:34.000Z,185
2023-04-15T04:19:51.000Z,145
2023-04-15T04:21:07.000Z,28
2023-04-15T04:22:23.000Z,31
2023-04-15T04:23:39.000Z,42
2023-04-15T04:24:56.000Z,51
2023-04-15T04:26:12.000Z,55
2023-04-15T04:27:28.000Z,67
2023-04-15T04:28:44.000Z,75
2023-04-15T04:30:00.000Z,85
2023-04-15T04:31:16.000Z,96
2023-04-15T04:32:32.000Z,107
2023-04-15T04:33:48.000Z,117
2023-04-15T04:35:04.000Z,131
2023-04-15T04:36:21.000Z,141
2023-04-15T04:37:37.000Z,153
2023-04-15T04:38:53.000Z,166
2023-04-15T04:40:09.000Z,181
2023-04-15T04:41:26.000Z,196
2023-04-15T04:42:42.000Z,211
2023-04-15T04:43:58.000Z,229
2023-04-15T04:45:14.000Z,248
2023-04-15T04:46:30.000Z,266
2023-04-15T04:47:46.000Z,285
2023-04-15T04:49:02.000Z,308
2023-04-15T04:50:18.000Z,333
2023-04-15T04:51:35.000Z,359
2023-04-15T04:52:51.000Z,389
2023-04-15T04:54:07.000Z,417
2023-04-15T04:55:23.000Z,449
2023-04-15T04:56:39.000Z,480
2023-04-15T04:57:56.000Z,511
2023-04-15T04:59:12.000Z,546
2023-04-15T05:00:28.000Z,581
2023-04-15T05:01:44.000Z,618
2023-04-15T05:03:00.000Z,656
2023-04-15T05:04:16.000Z,696
2023-04-15T05:05:32.000Z,734
2023-04-15T05:06:48.000Z,775
2023-04-15T05:08:05.000Z,817
2023-04-15T05:09:21.000Z,853
2023-04-15T05:10:37.000Z,883
2023-04-15T05:11:53.000Z,914
2023-04-15T05:13:10.000Z,943
2023-04-15T05:14:26.000Z,978
2023-04-15T05:15:42.000Z,1007
2023-04-15T05:16:58.000Z,1041
2023-04-15T05:18:14.000Z,1075
2023-04-15T05:19:30.000Z,1106
2023-04-15T05:20:46.000Z,1131
2023-04-15T05:22:02.000Z,1161
2023-04-15T05:23:18.000Z,1193
2023-04-15T05:24:35.000Z,1225
2023-04-15T05:27:07.000Z,1294
2023-04-15T05:28:23.000Z,1331
2023-04-15T05:29:40.000Z,1368
2023-04-15T05:30:56.000Z,1408
2023-04-15T05:32:12.000Z,1436
2023-04-15T05:33:28.000Z,1465
2023-04-15T05:34:45.000Z,1496
2023-04-15T05:36:00.000Z,1547
2023-04-15T05:37:16.000Z,1613
2023-04-15T05:38:32.000Z,1686
2023-04-15T05:39:48.000Z,1778
2023-04-15T05:41:05.000Z,1881
2023-04-15T05:42:21.000Z,1982
2023-04-15T05:43:37.000Z,2069
2023-04-15T05:44:53.000Z,2130
2023-04-15T05:46:10.000Z,2187
2023-04-15T05:47:26.000Z,2232
2023-04-15T05:48:42.000Z,2283
2023-04-15T05:49:58.000Z,2351
2023-04-15T05:51:15.000Z,2408
2023-04-15T05:52:30.000Z,2477
2023-04-15T05:53:46.000Z,2522
2023-04-15T05:55:02.000Z,2564
2023-04-15T05:56:19.000Z,2617
2023-04-15T05:57:35.000Z,2660
2023-04-15T05:58:51.000Z,2688
2023-04-15T06:00:07.000Z,2703
2023-04-15T06:01:23.000Z,2713
2023-04-15T06:02:40.000Z,2725
2023-04-15T06:05:12.000Z,2763
2023-04-15T06:06:28.000Z,2788
2023-04-15T06:07:45.000Z,2822
2023-04-15T06:09:00.000Z,2857
2023-04-15T06:10:16.000Z,2884
2023-04-15T06:11:32.000Z,2926
2023-04-15T06:12:49.000Z,2940
2023-04-15T06:14:05.000Z,2970
2023-04-15T06:15:21.000Z,3010
2023-04-15T06:16:37.000Z,3054
2023-04-15T06:17:54.000Z,3123
2023-04-15T06:20:26.000Z,3257
2023-04-15T06:21:42.000Z,3339
2023-04-15T06:22:58.000Z,3401
2023-04-15T06:24:15.000Z,3441
2023-04-15T06:25:30.000Z,3483
2023-04-15T06:26:46.000Z,3538
2023-04-15T06:28:02.000Z,3614
2023-04-15T06:29:19.000Z,3693
2023-04-15T06:30:35.000Z,3762
2023-04-15T06:31:51.000Z,3851
2023-04-15T06:33:07.000Z,3931
2023-04-15T06:34:24.000Z,4038
2023-04-15T06:35:40.000Z,4145
2023-04-15T06:38:12.000Z,4313
2023-04-15T06:39:29.000Z,4405
2023-04-15T06:40:45.000Z,4475
2023-04-15T06:42:00.000Z,4521
2023-04-15T06:43:16.000Z,4563
2023-04-15T06:44:32.000Z,4583
2023-04-15T06:45:49.000Z,4575
2023-04-15T06:47:05.000Z,4548
2023-04-15T06:48:21.000Z,4508
2023-04-15T06:50:53.000Z,4457
2023-04-15T06:52:08.000Z,4427
2023-04-15T06:53:24.000Z,4422
2023-04-15T06:54:40.000Z,4431
2023-04-15T06:55:57.000Z,4431
2023-04-15T06:57:13.000Z,4440
2023-04-15T06:58:29.000Z,4473
2023-04-15T06:59:45.000Z,4540
2023-04-15T07:01:02.000Z,4618
2023-04-15T07:02:18.000Z,4741
2023-04-15T07:03:34.000Z,4873
2023-04-15T07:04:50.000Z,4962
2023-04-15T07:06:07.000Z,5090
2023-04-15T07:07:23.000Z,5148
2023-04-15T07:08:38.000Z,5256
2023-04-15T07:09:54.000Z,5301
2023-04-15T07:11:10.000Z,5404
2023-04-15T07:12:27.000Z,5448
2023-04-15T07:13:43.000Z,5519
2023-04-15T07:14:59.000Z,5514
2023-04-15T07:16:15.000Z,5616
2023-04-15T07:17:32.000Z,5834
2023-04-15T07:18:48.000Z,6053
2023-04-15T07:20:04.000Z,6297
2023-04-15T07:21:20.000Z,6532
2023-04-15T07:22:37.000Z,6787
2023-04-15T07:23:53.000Z,7058
2023-04-15T07:26:24.000Z,7519
2023-04-15T07:27:41.000Z,7770
2023-04-15T07:28:57.000Z,7951
2023-04-15T07:30:13.000Z,8130
2023-04-15T07:31:29.000Z,8154
2023-04-15T07:32:45.000Z,8348
2023-04-15T07:34:02.000Z,8441
2023-04-15T07:35:18.000Z,8436
2023-04-15T07:36:34.000Z,8418
2023-04-15T07:37:50.000Z,8516
2023-04-15T07:39:07.000Z,8292
2023-04-15T07:40:23.000Z,8336
2023-04-15T07:41:38.000Z,8092
2023-04-15T07:42:54.000Z,8333
2023-04-15T07:44:11.000Z,8201
2023-04-15T07:45:27.000Z,8133
2023-04-15T07:46:43.000Z,8450
2023-04-15T07:47:59.000Z,8226
2023-04-15T07:49:16.000Z,8498
2023-04-15T07:50:32.000Z,7150
2023-04-15T07:51:48.000Z,7109
2023-04-15T07:53:04.000Z,7465
2023-04-15T07:54:20.000Z,9209
2023-04-15T07:55:37.000Z,6750
2023-04-15T07:56:53.000Z,7490
2023-04-15T07:58:09.000Z,7968
2023-04-15T07:59:24.000Z,6679
2023-04-15T08:00:41.000Z,7489
2023-04-15T08:01:57.000Z,7745
2023-04-15T08:03:13.000Z,9087
2023-04-15T08:04:29.000Z,8606
2023-04-15T08:05:46.000Z,6830
2023-04-15T08:07:02.000Z,8967
2023-04-15T08:08:18.000Z,10551
2023-04-15T08:09:34.000Z,8479
2023-04-15T08:10:51.000Z,8647
2023-04-15T08:12:07.000Z,8236
2023-04-15T08:13:23.000Z,8670
2023-04-15T08:14:39.000Z,6895
2023-04-15T08:15:54.000Z,5641
2023-04-15T08:17:11.000Z,5490
2023-04-15T08:18:27.000Z,3977
2023-04-15T08:19:43.000Z,5552
2023-04-15T08:20:59.000Z,7085
2023-04-15T08:22:16.000Z,5357
2023-04-15T08:23:32.000Z,6576
2023-04-15T08:24:48.000Z,7407
2023-04-15T08:26:04.000Z,5478
2023-04-15T08:27:21.000Z,7121
2023-04-15T08:28:37.000Z,5961
2023-04-15T08:29:53.000Z,4288
2023-04-15T08:31:09.000Z,5790
2023-04-15T08:32:25.000Z,5196
2023-04-15T08:33:41.000Z,4973
2023-04-15T08:34:57.000Z,6465
2023-04-15T08:36:13.000Z,5111
2023-04-15T08:37:29.000Z,6339
2023-04-15T08:38:46.000Z,5382
2023-04-15T08:40:02.000Z,5188
2023-04-15T08:41:18.000Z,4684
2023-04-15T08:42:34.000Z,4628
2023-04-15T08:43:51.000Z,4739
2023-04-15T08:45:07.000Z,3890
2023-04-15T08:46:23.000Z,4966
2023-04-15T08:47:39.000Z,4051
2023-04-15T08:48:56.000Z,6328
2023-04-15T08:50:11.000Z,4296
2023-04-15T08:51:27.000Z,6332
2023-04-15T08:52:43.000Z,4697
2023-04-15T08:54:00.000Z,4833
2023-04-15T08:55:16.000Z,6077
2023-04-15T08:56:32.000Z,6394
2023-04-15T08:57:48.000Z,6747
2023-04-15T08:59:04.000Z,6092
2023-04-15T09:00:21.000Z,6922
2023-04-15T09:02:53.000Z,4674
2023-04-15T09:04:09.000Z,4850
2023-04-15T09:05:26.000Z,6276
2023-04-15T09:07:57.000Z,9491
2023-04-15T09:09:13.000Z,7521
2023-04-15T09:10:30.000Z,5569
2023-04-15T09:11:46.000Z,6267
2023-04-15T09:13:02.000Z,8554
2023-04-15T09:14:18.000Z,7468
2023-04-15T09:15:35.000Z,7831
2023-04-15T09:16:51.000Z,7644
2023-04-15T09:18:07.000Z,11166
2023-04-15T09:19:23.000Z,8354
2023-04-15T09:20:39.000Z,9340
2023-04-15T09:21:56.000Z,7142
2023-04-15T09:23:11.000Z,8225
2023-04-15T09:24:27.000Z,6753
2023-04-15T09:25:43.000Z,6310
2023-04-15T09:27:00.000Z,6388
2023-04-15T09:28:16.000Z,6900
2023-04-15T09:29:32.000Z,6721
2023-04-15T09:30:48.000Z,5294
2023-04-15T09:32:05.000Z,6575
2023-04-15T09:33:21.000Z,5380
2023-04-15T09:34:37.000Z,5342
2023-04-15T09:35:53.000Z,5841
2023-04-15T09:37:10.000Z,4470
2023-04-15T09:38:26.000Z,5817
2023-04-15T09:39:42.000Z,4553
2023-04-15T09:40:57.000Z,4146
2023-04-15T09:42:13.000Z,6036
2023-04-15T09:43:30.000Z,4541
2023-04-15T09:44:46.000Z,4891
2023-04-15T09:46:02.000Z,5645
2023-04-15T09:47:18.000Z,5047
2023-04-15T09:48:35.000Z,5621
2023-04-15T09:49:51.000Z,4687
2023-04-15T09:51:07.000Z,5104
2023-04-15T09:52:23.000Z,5719
2023-04-15T09:53:40.000Z,5961
2023-04-15T09:54:56.000Z,5581
2023-04-15T09:56:12.000Z,6397
2023-04-15T09:57:27.000Z,7082
2023-04-15T09:58:44.000Z,6372
2023-04-15T10:00:00.000Z,6967
2023-04-15T10:01:16.000Z,6387
2023-04-15T10:02:32.000Z,9190
2023-04-15T10:03:48.000Z,7522
2023-04-15T10:05:05.000Z,8044
2023-04-15T10:06:21.000Z,7825
2023-04-15T10:07:37.000Z,8239
2023-04-15T10:08:53.000Z,7492
2023-04-15T10:10:10.000Z,5724
2023-04-15T10:11:26.000Z,5980
2023-04-15T10:13:58.000Z,6667
2023-04-15T10:15:15.000Z,5398
2023-04-15T10:16:30.000Z,4904
2023-04-15T10:17:46.000Z,4575
2023-04-15T10:19:02.000Z,5959
2023-04-15T10:20:19.000Z,6846
2023-04-15T10:21:35.000Z,6639
2023-04-15T10:22:51.000Z,6877
2023-04-15T10:24:07.000Z,7560
2023-04-15T10:25:23.000Z,8172
2023-04-15T10:26:40.000Z,8678
2023-04-15T10:27:56.000Z,8364
2023-04-15T10:29:12.000Z,7047
2023-04-15T10:30:28.000Z,6738
2023-04-15T10:31:45.000Z,8358
2023-04-15T10:33:00.000Z,8661
2023-04-15T10:34:16.000Z,10267
2023-04-15T10:35:32.000Z,9585
2023-04-15T10:36:49.000Z,9553
2023-04-15T10:38:05.000Z,9736
2023-04-15T10:39:21.000Z,8050
2023-04-15T10:40:37.000Z,6426
2023-04-15T10:41:53.000Z,9361
2023-04-15T10:43:10.000Z,7760
2023-04-15T10:44:26.000Z,9045
2023-04-15T10:45:42.000Z,6551
2023-04-15T10:46:58.000Z,8387
2023-04-15T10:48:15.000Z,6891
2023-04-15T10:49:30.000Z,5894
2023-04-15T10:50:46.000Z,5825
2023-04-15T10:52:02.000Z,7645
2023-04-15T10:53:19.000Z,7515
2023-04-15T10:54:35.000Z,8097
2023-04-15T10:55:51.000Z,9189
2023-04-15T10:57:07.000Z,8759
2023-04-15T10:58:24.000Z,8375
2023-04-15T10:59:40.000Z,11421
2023-04-15T11:00:56.000Z,10919
2023-04-15T11:02:12.000Z,12544
2023-04-15T11:03:28.000Z,9323
2023-04-15T11:04:45.000Z,11849
2023-04-15T11:06:00.000Z,7761
2023-04-15T11:07:15.000Z,10435
2023-04-15T11:08:31.000Z,13636
2023-04-15T11:09:48.000Z,10498
2023-04-15T11:11:04.000Z,13043
2023-04-15T11:12:20.000Z,11772
2023-04-15T11:13:36.000Z,9324
2023-04-15T11:14:53.000Z,9800
2023-04-15T11:16:09.000Z,6371
2023-04-15T11:17:25.000Z,10703
2023-04-15T11:18:41.000Z,11951
2023-04-15T11:19:58.000Z,8534
2023-04-15T11:21:14.000Z,8926
2023-04-15T11:22:30.000Z,8720
2023-04-15T11:23:45.000Z,13414
2023-04-15T11:25:02.000Z,10595
2023-04-15T11:26:18.000Z,7318
2023-04-15T11:27:34.000Z,4323
2023-04-15T11:28:50.000Z,5651
2023-04-15T11:30:06.000Z,8875
2023-04-15T11:31:23.000Z,7341
2023-04-15T11:32:39.000Z,6921
2023-04-15T11:33:55.000Z,7967
2023-04-15T11:35:11.000Z,5675
2023-04-15T11:36:28.000Z,8048
2023-04-15T11:37:44.000Z,7986
2023-04-15T11:39:00.000Z,6558
2023-04-15T11:40:16.000Z,8715
2023-04-15T11:41:32.000Z,7659
2023-04-15T11:42:48.000Z,5988
2023-04-15T11:44:04.000Z,7817
2023-04-15T11:46:37.000Z,7057
2023-04-15T11:47:53.000Z,5952
2023-04-15T11:49:09.000Z,5374
2023-04-15T11:50:25.000Z,5561
2023-04-15T11:51:41.000Z,4845
2023-04-15T11:52:58.000Z,5802
2023-04-15T11:54:14.000Z,4865
2023-04-15T11:55:30.000Z,4402
2023-04-15T11:56:46.000Z,6637
2023-04-15T11:58:02.000Z,7897
2023-04-15T11:59:18.000Z,7082
2023-04-15T12:00:34.000Z,8133
2023-04-15T12:01:50.000Z,8481
2023-04-15T12:03:07.000Z,6676
2023-04-15T12:04:23.000Z,8063
2023-04-15T12:05:39.000Z,9183
2023-04-15T12:06:55.000Z,7631
2023-04-15T12:08:12.000Z,8171
2023-04-15T12:09:28.000Z,8396
2023-04-15T12:12:00.000Z,5359
2023-04-15T12:13:16.000Z,4752
2023-04-15T12:14:32.000Z,6993
2023-04-15T12:15:48.000Z,6050
2023-04-15T12:17:04.000Z,8472
2023-04-15T12:18:20.000Z,8023
2023-04-15T12:19:37.000Z,8322
2023-04-15T12:20:53.000Z,6596
2023-04-15T12:22:09.000Z,8228
2023-04-15T12:23:25.000Z,8236
2023-04-15T12:24:42.000Z,8498
2023-04-15T12:25:58.000Z,8335
2023-04-15T12:28:30.000Z,8591
2023-04-15T12:29:46.000Z,7064
2023-04-15T12:31:02.000Z,5423
2023-04-15T12:32:18.000Z,4966
2023-04-15T12:33:34.000Z,4156
2023-04-15T12:34:50.000Z,4948
2023-04-15T12:36:07.000Z,4852
2023-04-15T12:37:23.000Z,3549
2023-04-15T12:38:39.000Z,4467
2023-04-15T12:39:55.000Z,3366
2023-04-15T12:41:12.000Z,3852
2023-04-15T12:42:28.000Z,5576
2023-04-15T12:43:44.000Z,5886
2023-04-15T12:45:00.000Z,4611
2023-04-15T12:46:17.000Z,6289
2023-04-15T12:47:32.000Z,5001
2023-04-15T12:48:48.000Z,8149
2023-04-15T12:50:04.000Z,6700
2023-04-15T12:51:21.000Z,6674
2023-04-15T12:52:37.000Z,6431
2023-04-15T12:53:53.000Z,5693
2023-04-15T12:57:42.000Z,6553
2023-04-15T12:58:58.000Z,5284
2023-04-15T13:00:14.000Z,5505
2023-04-15T13:01:30.000Z,6108
2023-04-15T13:02:47.000Z,4524
2023-04-15T13:04:02.000Z,5689
2023-04-15T13:05:18.000Z,5594
2023-04-15T13:06:34.000Z,4446
2023-04-15T13:07:51.000Z,4984
2023-04-15T13:09:07.000Z,4188
2023-04-15T13:10:23.000Z,3474
2023-04-15T13:11:39.000Z,3560
2023-04-15T13:12:56.000Z,2816
2023-04-15T13:14:12.000Z,3560
2023-04-15T13:15:28.000Z,2989
2023-04-15T13:16:44.000Z,3013
2023-04-15T13:18:00.000Z,2196
2023-04-15T13:19:17.000Z,3369
2023-04-15T13:20:32.000Z,3237
2023-04-15T13:21:48.000Z,3111
2023-04-15T13:23:04.000Z,3094
2023-04-15T13:24:21.000Z,2763
2023-04-15T13:25:37.000Z,2406
2023-04-15T13:26:53.000Z,3216
2023-04-15T13:28:09.000Z,2944
2023-04-15T13:29:26.000Z,2713
2023-04-15T13:30:42.000Z,2272
2023-04-15T13:31:58.000Z,2953
2023-04-15T13:33:14.000Z,2211
2023-04-15T13:34:30.000Z,1934
2023-04-15T13:35:47.000Z,3565
2023-04-15T13:37:02.000Z,3922
2023-04-15T13:38:18.000Z,4301
2023-04-15T13:39:34.000Z,3521
2023-04-15T13:40:51.000Z,3794
2023-04-15T13:42:07.000Z,3206
2023-04-15T13:43:23.000Z,2613
2023-04-15T13:44:39.000Z,2988
2023-04-15T13:45:56.000Z,3566
2023-04-15T13:47:12.000Z,2695
2023-04-15T13:48:28.000Z,3172
2023-04-15T13:49:44.000Z,2316
2023-04-15T13:51:01.000Z,3246
2023-04-15T13:52:17.000Z,3760
2023-04-15T13:53:32.000Z,3828
2023-04-15T13:54:48.766Z,4456
2023-04-15T13:56:04.000Z,4568
2023-04-15T13:57:21.000Z,4089
2023-04-15T13:58:37.000Z,3629
2023-04-15T13:59:53.000Z,2396
2023-04-15T14:01:09.000Z,3470
2023-04-15T14:02:26.000Z,3929
2023-04-15T14:03:42.000Z,3821
2023-04-15T14:04:58.000Z,3182
2023-04-15T14:06:14.000Z,3133
2023-04-15T14:07:31.000Z,2960
2023-04-15T14:08:47.000Z,2366
2023-04-15T14:10:02.000Z,3316
2023-04-15T14:11:18.000Z,2215
2023-04-15T14:12:35.000Z,3309
2023-04-15T14:13:51.000Z,3518
2023-04-15T14:15:07.000Z,3228
2023-04-15T14:16:23.000Z,2582
2023-04-15T14:17:39.000Z,2961
2023-04-15T14:18:56.000Z,2151
2023-04-15T14:20:12.000Z,2877
2023-04-15T14:21:28.000Z,2201
2023-04-15T14:22:44.000Z,2715
2023-04-15T14:24:01.000Z,2167
2023-04-15T14:25:17.000Z,2434
2023-04-15T14:26:32.000Z,2167
2023-04-15T14:27:48.000Z,2370
2023-04-15T14:29:05.000Z,2273
2023-04-15T14:30:21.000Z,1998
2023-04-15T14:31:37.000Z,1696
2023-04-15T14:32:53.000Z,1917
2023-04-15T14:34:10.000Z,1539
2023-04-15T14:35:26.000Z,1637
2023-04-15T14:36:42.000Z,1459
2023-04-15T14:37:58.000Z,1260
2023-04-15T14:39:14.000Z,1655
2023-04-15T14:40:31.000Z,1300
2023-04-15T14:41:47.000Z,1131
2023-04-15T14:43:02.000Z,923
2023-04-15T14:44:18.000Z,1096
2023-04-15T14:45:35.000Z,1203
2023-04-15T14:46:51.000Z,1576
2023-04-15T14:48:07.000Z,1593
2023-04-15T14:49:23.000Z,1485
2023-04-15T14:50:40.000Z,1846
2023-04-15T14:51:56.000Z,1622
2023-04-15T14:53:12.000Z,1877
2023-04-15T14:54:28.000Z,1965
2023-04-15T14:55:45.000Z,2026
2023-04-15T14:57:01.000Z,1565
2023-04-15T14:58:17.000Z,2019
2023-04-15T14:59:32.000Z,1727
2023-04-15T15:00:48.000Z,1418
2023-04-15T15:02:05.000Z,1604
2023-04-15T15:03:21.000Z,1466
2023-04-15T15:04:37.000Z,1186
2023-04-15T15:05:53.000Z,1139
2023-04-15T15:07:10.000Z,886
2023-04-15T15:08:26.000Z,1295
2023-04-15T15:09:42.000Z,956
2023-04-15T15:10:58.000Z,972
2023-04-15T15:12:15.000Z,1056
2023-04-15T15:13:31.000Z,1018
2023-04-15T15:14:47.000Z,1212
2023-04-15T15:16:03.000Z,1178
2023-04-15T15:17:19.000Z,1212
2023-04-15T15:18:35.000Z,1204
2023-04-15T15:19:51.000Z,1088
2023-04-15T15:21:07.000Z,1211
2023-04-15T15:22:23.000Z,1128
2023-04-15T15:23:39.000Z,1411
2023-04-15T15:24:55.000Z,1301
2023-04-15T15:26:11.000Z,1612
2023-04-15T15:27:27.000Z,1321
2023-04-15T15:28:44.000Z,1555
2023-04-15T15:30:00.000Z,1409
2023-04-15T15:31:16.000Z,1210
2023-04-15T15:32:32.000Z,1316
2023-04-15T15:33:49.000Z,1216
2023-04-15T15:35:05.000Z,1114
2023-04-15T15:36:21.000Z,1045
2023-04-15T15:37:37.000Z,978
2023-04-15T15:38:54.000Z,1030
2023-04-15T15:40:09.000Z,1033
2023-04-15T15:41:25.000Z,1029
2023-04-15T15:42:41.000Z,926
2023-04-15T15:43:58.000Z,882
2023-04-15T15:45:14.000Z,865
2023-04-15T15:46:30.000Z,1172
2023-04-15T15:47:46.000Z,998
2023-04-15T15:49:02.000Z,1015
2023-04-15T15:50:19.000Z,1082
2023-04-15T15:51:35.000Z,1055
2023-04-15T15:52:51.000Z,1054
2023-04-15T15:54:07.000Z,1002
2023-04-15T15:55:24.000Z,896
2023-04-15T15:56:39.000Z,818
2023-04-15T15:57:55.000Z,861
2023-04-15T15:59:11.000Z,833
2023-04-15T16:00:28.000Z,849
2023-04-15T16:01:44.000Z,772
2023-04-15T16:03:00.000Z,773
2023-04-15T16:04:16.000Z,787
2023-04-15T16:05:32.000Z,773
2023-04-15T16:06:47.000Z,765
2023-04-15T16:08:03.000Z,775
2023-04-15T16:09:19.000Z,797
2023-04-15T16:10:35.000Z,834
2023-04-15T16:11:51.000Z,781
2023-04-15T16:13:06.000Z,749
2023-04-15T16:14:22.000Z,810
2023-04-15T16:15:38.000Z,718
2023-04-15T16:16:55.000Z,786
2023-04-15T16:19:27.000Z,792
2023-04-15T16:20:43.000Z,827
2023-04-15T16:22:00.000Z,746
2023-04-15T16:23:16.000Z,854
2023-04-15T16:24:32.000Z,728
2023-04-15T16:25:48.000Z,781
2023-04-15T16:27:05.000Z,724
2023-04-15T16:28:21.000Z,741
2023-04-15T16:29:36.000Z,734
2023-04-15T16:30:52.000Z,712
2023-04-15T16:32:09.000Z,677
2023-04-15T16:33:25.000Z,677
2023-04-15T16:34:41.000Z,635
2023-04-15T16:35:57.000Z,749
2023-04-15T16:37:13.000Z,736
2023-04-15T16:38:30.000Z,783
2023-04-15T16:39:46.000Z,772
2023-04-15T16:41:02.000Z,737
2023-04-15T16:42:18.000Z,725
2023-04-15T16:43:35.000Z,695
2023-04-15T16:44:51.000Z,714
2023-04-15T16:46:06.000Z,576
2023-04-15T16:47:22.000Z,651
2023-04-15T16:48:39.000Z,683
2023-04-15T16:49:55.000Z,677
2023-04-15T16:51:11.000Z,559
2023-04-15T16:52:27.000Z,605
2023-04-15T16:53:44.000Z,538
2023-04-15T16:55:00.000Z,594
2023-04-15T16:56:16.000Z,550
2023-04-15T16:57:32.000Z,518
2023-04-15T16:58:48.000Z,567
2023-04-15T17:00:05.000Z,558
2023-04-15T17:01:21.000Z,571
2023-04-15T17:02:37.000Z,541
2023-04-15T17:03:52.000Z,418
2023-04-15T17:05:09.000Z,489
2023-04-15T17:06:25.000Z,432
2023-04-15T17:07:41.000Z,474
2023-04-15T17:08:57.000Z,466
2023-04-15T17:10:14.000Z,376
2023-04-15T17:11:30.000Z,480
2023-04-15T17:12:46.000Z,411
2023-04-15T17:14:02.000Z,401
2023-04-15T17:15:19.000Z,435
2023-04-15T17:16:35.000Z,400
2023-04-15T17:17:51.000Z,360
2023-04-15T17:19:07.000Z,363
2023-04-15T17:20:22.000Z,340
2023-04-15T17:21:39.000Z,432
2023-04-15T17:22:55.000Z,392
2023-04-15T17:24:11.000Z,357
2023-04-15T17:25:27.000Z,311
2023-04-15T17:26:44.000Z,332